sensor_id;sensor_type;location;lat;lon;timestamp;P1;durP1;ratioP1;P2;durP2;ratioP2
82396;SDS011;72034;51.426;7.534;2023-10-31T05:02:28;10.65;;;8.93;;
82396;SDS011;72034;51.426;7.534;2023-10-31T05:04:56;9.93;;;8.00;;
82396;SDS011;72034;51.426;7.534;2023-10-31T05:07:29;8.50;;;7.70;;
82396;SDS011;72034;51.426;7.534;2023-10-31T05:10:08;8.10;;;7.28;;
82396;SDS011;72034;51.426;7.534;2023-10-31T05:12:47;10.57;;;8.23;;
82396;SDS011;72034;51.426;7.534;2023-10-31T05:15:32;9.48;;;7.50;;
82396;SDS011;72034;51.426;7.534;2023-10-31T05:18:22;10.43;;;7.70;;
82396;SDS011;72034;51.426;7.534;2023-10-31T05:21:07;8.68;;;7.55;;
82396;SDS011;72034;51.426;7.534;2023-10-31T05:23:46;12.20;;;9.52;;
82396;SDS011;72034;51.426;7.534;2023-10-31T05:26:30;12.25;;;9.43;;
82396;SDS011;72034;51.426;7.534;2023-10-31T05:29:22;11.40;;;9.15;;
82396;SDS011;72034;51.426;7.534;2023-10-31T05:31:57;10.85;;;8.65;;
82396;SDS011;72034;51.426;7.534;2023-10-31T05:34:43;12.10;;;9.00;;
82396;SDS011;72034;51.426;7.534;2023-10-31T05:37:20;11.98;;;7.97;;
82396;SDS011;72034;51.426;7.534;2023-10-31T05:39:46;12.18;;;7.80;;
82396;SDS011;72034;51.426;7.534;2023-10-31T05:42:11;9.07;;;6.47;;
82396;SDS011;72034;51.426;7.534;2023-10-31T05:44:36;9.45;;;6.90;;
82396;SDS011;72034;51.426;7.534;2023-10-31T05:47:02;7.63;;;5.63;;
82396;SDS011;72034;51.426;7.534;2023-10-31T05:49:27;5.50;;;4.95;;
82396;SDS011;72034;51.426;7.534;2023-10-31T05:51:53;5.60;;;5.05;;
82396;SDS011;72034;51.426;7.534;2023-10-31T05:54:18;6.05;;;5.20;;
82396;SDS011;72034;51.426;7.534;2023-10-31T05:56:44;5.75;;;4.63;;
82396;SDS011;72034;51.426;7.534;2023-10-31T05:59:10;5.22;;;4.72;;
82396;SDS011;72034;51.426;7.534;2023-10-31T06:01:35;7.15;;;5.85;;
82396;SDS011;72034;51.426;7.534;2023-10-31T06:04:01;5.40;;;4.90;;
82396;SDS011;72034;51.426;7.534;2023-10-31T06:06:26;6.38;;;5.78;;
82396;SDS011;72034;51.426;7.534;2023-10-31T06:08:51;5.65;;;5.03;;
82396;SDS011;72034;51.426;7.534;2023-10-31T06:11:17;7.05;;;5.32;;
82396;SDS011;72034;51.426;7.534;2023-10-31T06:13:42;7.90;;;5.88;;
82396;SDS011;72034;51.426;7.534;2023-10-31T06:16:10;6.47;;;5.80;;
82396;SDS011;72034;51.426;7.534;2023-10-31T06:18:38;8.32;;;6.55;;
82396;SDS011;72034;51.426;7.534;2023-10-31T06:21:04;7.35;;;6.60;;
82396;SDS011;72034;51.426;7.534;2023-10-31T06:23:29;7.05;;;6.35;;
82396;SDS011;72034;51.426;7.534;2023-10-31T06:25:55;8.23;;;7.15;;
82396;SDS011;72034;51.426;7.534;2023-10-31T06:28:23;8.38;;;7.53;;
82396;SDS011;72034;51.426;7.534;2023-10-31T06:30:48;8.27;;;7.40;;
82396;SDS011;72034;51.426;7.534;2023-10-31T06:33:14;8.07;;;6.80;;
82396;SDS011;72034;51.426;7.534;2023-10-31T06:35:39;10.05;;;7.28;;
82396;SDS011;72034;51.426;7.534;2023-10-31T06:38:04;7.38;;;6.63;;
82396;SDS011;72034;51.426;7.534;2023-10-31T06:40:30;9.18;;;7.50;;
82396;SDS011;72034;51.426;7.534;2023-10-31T06:42:55;9.10;;;7.53;;
82396;SDS011;72034;51.426;7.534;2023-10-31T06:45:20;8.25;;;7.40;;
82396;SDS011;72034;51.426;7.534;2023-10-31T06:47:46;8.63;;;7.70;;
82396;SDS011;72034;51.426;7.534;2023-10-31T06:50:11;8.93;;;8.02;;
82396;SDS011;72034;51.426;7.534;2023-10-31T06:52:36;9.27;;;7.78;;
82396;SDS011;72034;51.426;7.534;2023-10-31T06:55:02;8.95;;;8.10;;
82396;SDS011;72034;51.426;7.534;2023-10-31T06:57:27;9.18;;;8.27;;
82396;SDS011;72034;51.426;7.534;2023-10-31T06:59:53;8.80;;;7.90;;
82396;SDS011;72034;51.426;7.534;2023-10-31T07:02:18;8.75;;;7.85;;
82396;SDS011;72034;51.426;7.534;2023-10-31T07:04:43;10.13;;;7.18;;
82396;SDS011;72034;51.426;7.534;2023-10-31T07:07:08;8.23;;;7.43;;
82396;SDS011;72034;51.426;7.534;2023-10-31T07:09:34;8.35;;;7.45;;
82396;SDS011;72034;51.426;7.534;2023-10-31T07:11:59;7.97;;;7.18;;
82396;SDS011;72034;51.426;7.534;2023-10-31T07:14:24;9.57;;;7.40;;
82396;SDS011;72034;51.426;7.534;2023-10-31T07:16:50;9.32;;;8.20;;
82396;SDS011;72034;51.426;7.534;2023-10-31T07:19:15;8.20;;;7.40;;
82396;SDS011;72034;51.426;7.534;2023-10-31T07:21:40;8.15;;;7.45;;
82396;SDS011;72034;51.426;7.534;2023-10-31T07:24:06;8.35;;;7.55;;
82396;SDS011;72034;51.426;7.534;2023-10-31T07:26:33;7.18;;;6.53;;
82396;SDS011;72034;51.426;7.534;2023-10-31T07:29:02;8.00;;;7.00;;
82396;SDS011;72034;51.426;7.534;2023-10-31T07:31:27;7.97;;;6.90;;
82396;SDS011;72034;51.426;7.534;2023-10-31T07:33:53;7.97;;;7.18;;
82396;SDS011;72034;51.426;7.534;2023-10-31T07:36:18;8.50;;;7.40;;
82396;SDS011;72034;51.426;7.534;2023-10-31T07:38:43;7.28;;;6.57;;
82396;SDS011;72034;51.426;7.534;2023-10-31T07:41:09;7.50;;;6.80;;
82396;SDS011;72034;51.426;7.534;2023-10-31T07:43:34;7.30;;;6.60;;
82396;SDS011;72034;51.426;7.534;2023-10-31T07:45:59;7.90;;;7.07;;
82396;SDS011;72034;51.426;7.534;2023-10-31T07:48:25;7.63;;;6.82;;
82396;SDS011;72034;51.426;7.534;2023-10-31T07:50:50;9.35;;;8.45;;
82396;SDS011;72034;51.426;7.534;2023-10-31T07:53:15;7.75;;;6.85;;
82396;SDS011;72034;51.426;7.534;2023-10-31T07:55:40;8.95;;;6.97;;
82396;SDS011;72034;51.426;7.534;2023-10-31T07:58:06;7.05;;;6.45;;
82396;SDS011;72034;51.426;7.534;2023-10-31T08:00:31;9.10;;;6.97;;
82396;SDS011;72034;51.426;7.534;2023-10-31T08:02:59;7.05;;;6.35;;
82396;SDS011;72034;51.426;7.534;2023-10-31T08:05:24;7.03;;;6.38;;
82396;SDS011;72034;51.426;7.534;2023-10-31T08:07:50;6.45;;;5.85;;
82396;SDS011;72034;51.426;7.534;2023-10-31T08:10:15;6.80;;;6.05;;
82396;SDS011;72034;51.426;7.534;2023-10-31T08:12:40;5.30;;;4.80;;
82396;SDS011;72034;51.426;7.534;2023-10-31T08:15:06;6.25;;;5.65;;
82396;SDS011;72034;51.426;7.534;2023-10-31T08:17:31;7.03;;;6.32;;
82396;SDS011;72034;51.426;7.534;2023-10-31T08:19:56;7.40;;;6.70;;
82396;SDS011;72034;51.426;7.534;2023-10-31T08:22:22;7.53;;;6.30;;
82396;SDS011;72034;51.426;7.534;2023-10-31T08:24:47;7.40;;;6.82;;
82396;SDS011;72034;51.426;7.534;2023-10-31T08:27:13;7.60;;;6.90;;
82396;SDS011;72034;51.426;7.534;2023-10-31T08:29:38;10.02;;;7.82;;
82396;SDS011;72034;51.426;7.534;2023-10-31T08:32:03;8.38;;;7.28;;
82396;SDS011;72034;51.426;7.534;2023-10-31T08:34:29;8.15;;;7.45;;
82396;SDS011;72034;51.426;7.534;2023-10-31T08:36:55;8.48;;;7.68;;
82396;SDS011;72034;51.426;7.534;2023-10-31T08:39:21;8.70;;;7.88;;
82396;SDS011;72034;51.426;7.534;2023-10-31T08:41:50;9.75;;;7.90;;
82396;SDS011;72034;51.426;7.534;2023-10-31T08:44:19;10.23;;;8.77;;
82396;SDS011;72034;51.426;7.534;2023-10-31T08:46:44;9.93;;;8.93;;
82396;SDS011;72034;51.426;7.534;2023-10-31T08:49:10;9.48;;;8.48;;
82396;SDS011;72034;51.426;7.534;2023-10-31T08:51:35;8.80;;;8.00;;
82396;SDS011;72034;51.426;7.534;2023-10-31T08:54:00;8.13;;;7.43;;
82396;SDS011;72034;51.426;7.534;2023-10-31T08:56:26;6.72;;;6.03;;
82396;SDS011;72034;51.426;7.534;2023-10-31T08:58:52;7.25;;;6.55;;
82396;SDS011;72034;51.426;7.534;2023-10-31T09:01:17;7.05;;;6.35;;
82396;SDS011;72034;51.426;7.534;2023-10-31T09:03:43;7.53;;;6.75;;
82396;SDS011;72034;51.426;7.534;2023-10-31T09:06:09;6.03;;;5.53;;
82396;SDS011;72034;51.426;7.534;2023-10-31T09:08:35;7.07;;;5.85;;
82396;SDS011;72034;51.426;7.534;2023-10-31T09:11:01;6.47;;;5.90;;
82396;SDS011;72034;51.426;7.534;2023-10-31T09:13:28;6.70;;;6.10;;
82396;SDS011;72034;51.426;7.534;2023-10-31T09:15:53;7.72;;;6.47;;
82396;SDS011;72034;51.426;7.534;2023-10-31T09:18:18;9.80;;;6.50;;
82396;SDS011;72034;51.426;7.534;2023-10-31T09:20:44;6.93;;;5.65;;
82396;SDS011;72034;51.426;7.534;2023-10-31T09:23:09;7.03;;;6.05;;
82396;SDS011;72034;51.426;7.534;2023-10-31T09:25:34;6.45;;;5.82;;
82396;SDS011;72034;51.426;7.534;2023-10-31T09:27:59;6.65;;;6.05;;
82396;SDS011;72034;51.426;7.534;2023-10-31T09:30:25;6.68;;;5.95;;
82396;SDS011;72034;51.426;7.534;2023-10-31T09:32:51;5.78;;;5.18;;
82396;SDS011;72034;51.426;7.534;2023-10-31T09:35:17;6.25;;;5.13;;
82396;SDS011;72034;51.426;7.534;2023-10-31T09:37:42;5.97;;;5.47;;
82396;SDS011;72034;51.426;7.534;2023-10-31T09:40:08;6.00;;;5.13;;
82396;SDS011;72034;51.426;7.534;2023-10-31T09:42:35;8.93;;;6.22;;
82396;SDS011;72034;51.426;7.534;2023-10-31T09:45:00;7.10;;;6.07;;
82396;SDS011;72034;51.426;7.534;2023-10-31T09:47:25;6.47;;;5.88;;
82396;SDS011;72034;51.426;7.534;2023-10-31T09:49:51;6.20;;;5.60;;
82396;SDS011;72034;51.426;7.534;2023-10-31T09:52:16;7.80;;;5.72;;
82396;SDS011;72034;51.426;7.534;2023-10-31T09:54:42;6.90;;;5.50;;
82396;SDS011;72034;51.426;7.534;2023-10-31T09:57:10;6.00;;;4.93;;
82396;SDS011;72034;51.426;7.534;2023-10-31T09:59:36;7.10;;;5.35;;
82396;SDS011;72034;51.426;7.534;2023-10-31T10:02:01;6.10;;;4.95;;
82396;SDS011;72034;51.426;7.534;2023-10-31T10:04:26;7.40;;;5.40;;
82396;SDS011;72034;51.426;7.534;2023-10-31T10:06:58;8.48;;;5.88;;
82396;SDS011;72034;51.426;7.534;2023-10-31T10:09:24;7.47;;;5.60;;
82396;SDS011;72034;51.426;7.534;2023-10-31T10:11:50;7.35;;;5.35;;
82396;SDS011;72034;51.426;7.534;2023-10-31T10:14:17;7.10;;;5.50;;
82396;SDS011;72034;51.426;7.534;2023-10-31T10:16:42;7.85;;;5.32;;
82396;SDS011;72034;51.426;7.534;2023-10-31T10:19:18;5.15;;;4.53;;
82396;SDS011;72034;51.426;7.534;2023-10-31T10:21:51;6.28;;;5.53;;
82396;SDS011;72034;51.426;7.534;2023-10-31T10:24:25;5.25;;;4.28;;
82396;SDS011;72034;51.426;7.534;2023-10-31T10:26:51;12.00;;;5.47;;
82396;SDS011;72034;51.426;7.534;2023-10-31T10:29:16;6.00;;;4.82;;
82396;SDS011;72034;51.426;7.534;2023-10-31T10:31:42;7.57;;;4.63;;
82396;SDS011;72034;51.426;7.534;2023-10-31T10:34:08;7.35;;;5.45;;
82396;SDS011;72034;51.426;7.534;2023-10-31T10:36:37;4.93;;;4.53;;
82396;SDS011;72034;51.426;7.534;2023-10-31T10:39:03;8.95;;;5.28;;
82396;SDS011;72034;51.426;7.534;2023-10-31T10:41:31;9.75;;;5.35;;
82396;SDS011;72034;51.426;7.534;2023-10-31T10:44:03;6.95;;;5.75;;
82396;SDS011;72034;51.426;7.534;2023-10-31T10:46:33;11.00;;;5.78;;
82396;SDS011;72034;51.426;7.534;2023-10-31T10:48:59;9.75;;;6.40;;
82396;SDS011;72034;51.426;7.534;2023-10-31T10:51:31;8.07;;;6.35;;
82396;SDS011;72034;51.426;7.534;2023-10-31T10:54:02;9.52;;;6.00;;
82396;SDS011;72034;51.426;7.534;2023-10-31T10:56:34;13.40;;;6.13;;
82396;SDS011;72034;51.426;7.534;2023-10-31T10:59:03;7.80;;;5.97;;
82396;SDS011;72034;51.426;7.534;2023-10-31T11:01:34;9.27;;;6.03;;
82396;SDS011;72034;51.426;7.534;2023-10-31T11:04:00;8.10;;;7.07;;
82396;SDS011;72034;51.426;7.534;2023-10-31T11:06:26;8.88;;;6.63;;
82396;SDS011;72034;51.426;7.534;2023-10-31T11:08:51;9.35;;;6.70;;
82396;SDS011;72034;51.426;7.534;2023-10-31T11:11:17;9.38;;;5.88;;
82396;SDS011;72034;51.426;7.534;2023-10-31T11:13:44;8.20;;;5.97;;
82396;SDS011;72034;51.426;7.534;2023-10-31T11:16:12;11.40;;;5.68;;
82396;SDS011;72034;51.426;7.534;2023-10-31T11:18:38;7.35;;;5.65;;
82396;SDS011;72034;51.426;7.534;2023-10-31T11:21:04;6.40;;;5.57;;
82396;SDS011;72034;51.426;7.534;2023-10-31T11:23:29;9.20;;;5.57;;
82396;SDS011;72034;51.426;7.534;2023-10-31T11:25:54;9.93;;;5.68;;
82396;SDS011;72034;51.426;7.534;2023-10-31T11:28:20;7.60;;;4.82;;
82396;SDS011;72034;51.426;7.534;2023-10-31T11:30:47;7.53;;;5.45;;
82396;SDS011;72034;51.426;7.534;2023-10-31T11:33:15;8.05;;;5.28;;
82396;SDS011;72034;51.426;7.534;2023-10-31T11:35:41;7.22;;;4.93;;
82396;SDS011;72034;51.426;7.534;2023-10-31T11:38:09;8.70;;;5.72;;
82396;SDS011;72034;51.426;7.534;2023-10-31T11:40:58;6.22;;;5.22;;
82396;SDS011;72034;51.426;7.534;2023-10-31T11:43:26;9.43;;;5.68;;
82396;SDS011;72034;51.426;7.534;2023-10-31T11:46:01;9.52;;;5.88;;
82396;SDS011;72034;51.426;7.534;2023-10-31T11:48:45;9.73;;;5.72;;
82396;SDS011;72034;51.426;7.534;2023-10-31T11:51:17;6.43;;;5.10;;
82396;SDS011;72034;51.426;7.534;2023-10-31T11:53:45;6.65;;;4.95;;
82396;SDS011;72034;51.426;7.534;2023-10-31T11:56:14;8.38;;;5.18;;
82396;SDS011;72034;51.426;7.534;2023-10-31T11:58:40;8.63;;;4.28;;
82396;SDS011;72034;51.426;7.534;2023-10-31T12:01:08;6.90;;;3.50;;
82396;SDS011;72034;51.426;7.534;2023-10-31T12:03:38;7.53;;;4.60;;
82396;SDS011;72034;51.426;7.534;2023-10-31T12:06:07;5.07;;;3.47;;
82396;SDS011;72034;51.426;7.534;2023-10-31T12:08:39;5.68;;;3.10;;
82396;SDS011;72034;51.426;7.534;2023-10-31T12:13:32;7.30;;;3.38;;
82396;SDS011;72034;51.426;7.534;2023-10-31T12:15:58;7.45;;;3.22;;
82396;SDS011;72034;51.426;7.534;2023-10-31T12:18:25;6.95;;;3.22;;
82396;SDS011;72034;51.426;7.534;2023-10-31T12:20:51;9.10;;;3.15;;
82396;SDS011;72034;51.426;7.534;2023-10-31T12:23:19;6.25;;;3.30;;
82396;SDS011;72034;51.426;7.534;2023-10-31T12:25:45;7.22;;;3.40;;
82396;SDS011;72034;51.426;7.534;2023-10-31T12:28:17;6.30;;;3.33;;
82396;SDS011;72034;51.426;7.534;2023-10-31T12:30:50;7.03;;;3.05;;
82396;SDS011;72034;51.426;7.534;2023-10-31T12:33:16;6.30;;;2.85;;
82396;SDS011;72034;51.426;7.534;2023-10-31T12:35:42;4.55;;;2.85;;
82396;SDS011;72034;51.426;7.534;2023-10-31T12:38:11;5.38;;;2.95;;
82396;SDS011;72034;51.426;7.534;2023-10-31T12:40:38;4.75;;;2.40;;
82396;SDS011;72034;51.426;7.534;2023-10-31T12:43:05;6.93;;;2.55;;
82396;SDS011;72034;51.426;7.534;2023-10-31T12:45:30;5.82;;;2.50;;
82396;SDS011;72034;51.426;7.534;2023-10-31T12:48:08;5.82;;;2.30;;
82396;SDS011;72034;51.426;7.534;2023-10-31T12:50:35;10.57;;;2.47;;
82396;SDS011;72034;51.426;7.534;2023-10-31T12:53:02;6.43;;;2.38;;
82396;SDS011;72034;51.426;7.534;2023-10-31T12:55:31;5.10;;;2.33;;
82396;SDS011;72034;51.426;7.534;2023-10-31T12:57:57;6.55;;;2.53;;
82396;SDS011;72034;51.426;7.534;2023-10-31T13:00:29;6.57;;;2.50;;
82396;SDS011;72034;51.426;7.534;2023-10-31T13:03:03;4.57;;;1.95;;
82396;SDS011;72034;51.426;7.534;2023-10-31T13:05:29;5.22;;;2.00;;
82396;SDS011;72034;51.426;7.534;2023-10-31T13:07:55;4.65;;;2.20;;
82396;SDS011;72034;51.426;7.534;2023-10-31T13:10:22;4.72;;;1.88;;
82396;SDS011;72034;51.426;7.534;2023-10-31T13:12:51;7.10;;;2.35;;
82396;SDS011;72034;51.426;7.534;2023-10-31T13:15:22;4.68;;;2.28;;
82396;SDS011;72034;51.426;7.534;2023-10-31T13:17:48;5.45;;;2.05;;
82396;SDS011;72034;51.426;7.534;2023-10-31T13:20:15;5.38;;;2.42;;
82396;SDS011;72034;51.426;7.534;2023-10-31T13:22:41;8.95;;;2.50;;
82396;SDS011;72034;51.426;7.534;2023-10-31T13:25:07;6.00;;;2.53;;
82396;SDS011;72034;51.426;7.534;2023-10-31T13:27:36;5.22;;;2.50;;
82396;SDS011;72034;51.426;7.534;2023-10-31T13:30:02;3.58;;;1.95;;
82396;SDS011;72034;51.426;7.534;2023-10-31T13:32:31;6.60;;;2.30;;
82396;SDS011;72034;51.426;7.534;2023-10-31T13:34:57;4.82;;;2.00;;
82396;SDS011;72034;51.426;7.534;2023-10-31T13:37:22;4.38;;;2.35;;
82396;SDS011;72034;51.426;7.534;2023-10-31T13:39:48;5.40;;;2.25;;
82396;SDS011;72034;51.426;7.534;2023-10-31T13:42:13;5.97;;;2.15;;
82396;SDS011;72034;51.426;7.534;2023-10-31T13:44:41;3.80;;;2.20;;
82396;SDS011;72034;51.426;7.534;2023-10-31T13:47:07;4.80;;;2.40;;
82396;SDS011;72034;51.426;7.534;2023-10-31T13:49:32;6.78;;;2.30;;
82396;SDS011;72034;51.426;7.534;2023-10-31T13:51:57;5.28;;;2.10;;
82396;SDS011;72034;51.426;7.534;2023-10-31T13:54:23;3.25;;;1.75;;
82396;SDS011;72034;51.426;7.534;2023-10-31T13:56:48;3.97;;;2.08;;
82396;SDS011;72034;51.426;7.534;2023-10-31T13:59:13;2.47;;;1.90;;
82396;SDS011;72034;51.426;7.534;2023-10-31T14:01:39;3.70;;;1.83;;
82396;SDS011;72034;51.426;7.534;2023-10-31T14:04:06;4.72;;;2.30;;
82396;SDS011;72034;51.426;7.534;2023-10-31T14:06:32;4.97;;;2.28;;
82396;SDS011;72034;51.426;7.534;2023-10-31T14:08:58;4.50;;;2.33;;
82396;SDS011;72034;51.426;7.534;2023-10-31T14:11:23;3.55;;;2.20;;
82396;SDS011;72034;51.426;7.534;2023-10-31T14:13:48;3.55;;;2.03;;
82396;SDS011;72034;51.426;7.534;2023-10-31T14:16:15;3.33;;;1.98;;
82396;SDS011;72034;51.426;7.534;2023-10-31T14:18:40;3.15;;;2.00;;
82396;SDS011;72034;51.426;7.534;2023-10-31T14:21:07;2.97;;;2.05;;
82396;SDS011;72034;51.426;7.534;2023-10-31T14:23:35;4.10;;;2.10;;
82396;SDS011;72034;51.426;7.534;2023-10-31T14:26:01;3.47;;;1.80;;
82396;SDS011;72034;51.426;7.534;2023-10-31T14:28:27;3.83;;;2.00;;
82396;SDS011;72034;51.426;7.534;2023-10-31T14:30:52;5.45;;;2.22;;
82396;SDS011;72034;51.426;7.534;2023-10-31T14:33:18;5.03;;;2.42;;
82396;SDS011;72034;51.426;7.534;2023-10-31T14:35:44;4.53;;;2.78;;
82396;SDS011;72034;51.426;7.534;2023-10-31T14:38:10;5.38;;;2.10;;
82396;SDS011;72034;51.426;7.534;2023-10-31T14:40:35;3.70;;;2.30;;
82396;SDS011;72034;51.426;7.534;2023-10-31T14:43:01;3.38;;;1.88;;
82396;SDS011;72034;51.426;7.534;2023-10-31T14:45:26;4.68;;;2.10;;
82396;SDS011;72034;51.426;7.534;2023-10-31T14:47:51;4.05;;;1.77;;
82396;SDS011;72034;51.426;7.534;2023-10-31T14:50:18;4.78;;;1.95;;
82396;SDS011;72034;51.426;7.534;2023-10-31T14:52:45;4.55;;;2.08;;
82396;SDS011;72034;51.426;7.534;2023-10-31T14:55:11;4.82;;;2.00;;
82396;SDS011;72034;51.426;7.534;2023-10-31T14:57:37;4.80;;;2.33;;
82396;SDS011;72034;51.426;7.534;2023-10-31T15:00:04;2.85;;;2.08;;
82396;SDS011;72034;51.426;7.534;2023-10-31T15:02:31;3.28;;;1.90;;
82396;SDS011;72034;51.426;7.534;2023-10-31T15:04:59;5.55;;;2.05;;
82396;SDS011;72034;51.426;7.534;2023-10-31T15:07:24;5.00;;;2.03;;
82396;SDS011;72034;51.426;7.534;2023-10-31T15:09:50;3.72;;;1.80;;
82396;SDS011;72034;51.426;7.534;2023-10-31T15:12:15;4.07;;;2.13;;
82396;SDS011;72034;51.426;7.534;2023-10-31T15:14:40;6.00;;;2.45;;
82396;SDS011;72034;51.426;7.534;2023-10-31T15:17:06;4.63;;;2.38;;
82396;SDS011;72034;51.426;7.534;2023-10-31T15:19:31;3.75;;;2.00;;
82396;SDS011;72034;51.426;7.534;2023-10-31T15:21:56;3.22;;;2.13;;
82396;SDS011;72034;51.426;7.534;2023-10-31T15:24:22;4.88;;;2.20;;
82396;SDS011;72034;51.426;7.534;2023-10-31T15:26:47;4.80;;;2.17;;
82396;SDS011;72034;51.426;7.534;2023-10-31T15:29:12;8.13;;;2.25;;
82396;SDS011;72034;51.426;7.534;2023-10-31T15:31:42;4.72;;;2.40;;
82396;SDS011;72034;51.426;7.534;2023-10-31T15:34:08;4.25;;;2.17;;
82396;SDS011;72034;51.426;7.534;2023-10-31T15:36:34;8.50;;;2.72;;
82396;SDS011;72034;51.426;7.534;2023-10-31T15:38:59;6.88;;;2.72;;
82396;SDS011;72034;51.426;7.534;2023-10-31T15:41:25;8.32;;;2.70;;
82396;SDS011;72034;51.426;7.534;2023-10-31T15:43:50;4.72;;;2.42;;
82396;SDS011;72034;51.426;7.534;2023-10-31T15:46:16;6.00;;;2.42;;
82396;SDS011;72034;51.426;7.534;2023-10-31T15:48:41;6.07;;;2.40;;
82396;SDS011;72034;51.426;7.534;2023-10-31T15:51:06;4.55;;;2.78;;
82396;SDS011;72034;51.426;7.534;2023-10-31T15:53:32;3.45;;;2.20;;
82396;SDS011;72034;51.426;7.534;2023-10-31T15:55:58;5.75;;;2.63;;
82396;SDS011;72034;51.426;7.534;2023-10-31T15:58:24;6.28;;;2.38;;
82396;SDS011;72034;51.426;7.534;2023-10-31T16:00:49;8.43;;;2.70;;
82396;SDS011;72034;51.426;7.534;2023-10-31T16:03:14;5.07;;;2.47;;
82396;SDS011;72034;51.426;7.534;2023-10-31T16:05:40;4.05;;;2.25;;
82396;SDS011;72034;51.426;7.534;2023-10-31T16:08:05;7.45;;;2.88;;
82396;SDS011;72034;51.426;7.534;2023-10-31T16:10:30;4.53;;;3.05;;
82396;SDS011;72034;51.426;7.534;2023-10-31T16:12:56;4.97;;;2.67;;
82396;SDS011;72034;51.426;7.534;2023-10-31T16:15:21;6.80;;;3.30;;
82396;SDS011;72034;51.426;7.534;2023-10-31T16:17:48;6.47;;;3.13;;
82396;SDS011;72034;51.426;7.534;2023-10-31T16:20:14;5.93;;;3.03;;
82396;SDS011;72034;51.426;7.534;2023-10-31T16:22:40;4.93;;;2.78;;
82396;SDS011;72034;51.426;7.534;2023-10-31T16:25:05;5.22;;;2.85;;
82396;SDS011;72034;51.426;7.534;2023-10-31T16:27:30;6.72;;;3.30;;
82396;SDS011;72034;51.426;7.534;2023-10-31T16:29:56;4.65;;;3.13;;
82396;SDS011;72034;51.426;7.534;2023-10-31T16:32:21;5.22;;;3.00;;
82396;SDS011;72034;51.426;7.534;2023-10-31T16:34:46;5.82;;;3.08;;
82396;SDS011;72034;51.426;7.534;2023-10-31T16:37:14;6.85;;;3.53;;
82396;SDS011;72034;51.426;7.534;2023-10-31T16:39:40;5.10;;;3.65;;
82396;SDS011;72034;51.426;7.534;2023-10-31T16:42:06;7.45;;;5.80;;
82396;SDS011;72034;51.426;7.534;2023-10-31T16:44:32;15.93;;;10.18;;
82396;SDS011;72034;51.426;7.534;2023-10-31T16:46:57;12.05;;;8.25;;
82396;SDS011;72034;51.426;7.534;2023-10-31T16:49:22;6.55;;;4.80;;
82396;SDS011;72034;51.426;7.534;2023-10-31T16:51:50;8.65;;;5.32;;
82396;SDS011;72034;51.426;7.534;2023-10-31T16:54:16;6.78;;;3.92;;
82396;SDS011;72034;51.426;7.534;2023-10-31T16:56:43;6.93;;;3.40;;
82396;SDS011;72034;51.426;7.534;2023-10-31T16:59:09;5.68;;;3.67;;
82396;SDS011;72034;51.426;7.534;2023-10-31T17:01:34;5.47;;;3.40;;
82396;SDS011;72034;51.426;7.534;2023-10-31T17:03:59;9.02;;;3.33;;
82396;SDS011;72034;51.426;7.534;2023-10-31T17:06:25;8.00;;;3.30;;
82396;SDS011;72034;51.426;7.534;2023-10-31T17:08:52;6.97;;;3.25;;
82396;SDS011;72034;51.426;7.534;2023-10-31T17:11:17;5.32;;;3.58;;
82396;SDS011;72034;51.426;7.534;2023-10-31T17:13:45;8.05;;;3.95;;
82396;SDS011;72034;51.426;7.534;2023-10-31T17:16:10;6.82;;;4.53;;
82396;SDS011;72034;51.426;7.534;2023-10-31T17:18:36;5.93;;;4.25;;
82396;SDS011;72034;51.426;7.534;2023-10-31T17:21:01;10.63;;;4.55;;
82396;SDS011;72034;51.426;7.534;2023-10-31T17:23:27;6.95;;;4.40;;
82396;SDS011;72034;51.426;7.534;2023-10-31T17:25:55;6.40;;;4.25;;
82396;SDS011;72034;51.426;7.534;2023-10-31T17:28:29;7.90;;;5.40;;
82396;SDS011;72034;51.426;7.534;2023-10-31T17:31:03;8.68;;;4.90;;
82396;SDS011;72034;51.426;7.534;2023-10-31T17:33:30;5.80;;;4.22;;
82396;SDS011;72034;51.426;7.534;2023-10-31T17:35:58;6.97;;;4.32;;
82396;SDS011;72034;51.426;7.534;2023-10-31T17:38:26;8.88;;;4.20;;
82396;SDS011;72034;51.426;7.534;2023-10-31T17:40:56;5.28;;;3.80;;
82396;SDS011;72034;51.426;7.534;2023-10-31T17:46:29;12.90;;;10.20;;
82396;SDS011;72034;51.426;7.534;2023-10-31T17:49:17;15.10;;;5.97;;
82396;SDS011;72034;51.426;7.534;2023-10-31T17:52:08;4.80;;;3.75;;
82396;SDS011;72034;51.426;7.534;2023-10-31T17:54:41;12.80;;;7.28;;
82396;SDS011;72034;51.426;7.534;2023-10-31T17:57:52;28.50;;;14.35;;
82396;SDS011;72034;51.426;7.534;2023-10-31T18:00:31;7.75;;;4.40;;
82396;SDS011;72034;51.426;7.534;2023-10-31T18:03:10;4.90;;;3.78;;
82396;SDS011;72034;51.426;7.534;2023-10-31T18:06:08;6.30;;;3.45;;
82396;SDS011;72034;51.426;7.534;2023-10-31T18:08:34;7.97;;;4.25;;
82396;SDS011;72034;51.426;7.534;2023-10-31T18:11:07;7.13;;;5.05;;
82396;SDS011;72034;51.426;7.534;2023-10-31T18:13:48;11.23;;;8.07;;
82396;SDS011;72034;51.426;7.534;2023-10-31T18:16:28;5.57;;;4.80;;
82396;SDS011;72034;51.426;7.534;2023-10-31T18:19:14;7.65;;;4.57;;
82396;SDS011;72034;51.426;7.534;2023-10-31T18:21:45;7.07;;;4.22;;
82396;SDS011;72034;51.426;7.534;2023-10-31T18:24:21;7.80;;;5.55;;
82396;SDS011;72034;51.426;7.534;2023-10-31T18:29:39;12.93;;;9.45;;
82396;SDS011;72034;51.426;7.534;2023-10-31T18:32:04;13.32;;;8.95;;
82396;SDS011;72034;51.426;7.534;2023-10-31T18:34:30;8.57;;;7.15;;
82396;SDS011;72034;51.426;7.534;2023-10-31T18:36:55;10.55;;;6.32;;
82396;SDS011;72034;51.426;7.534;2023-10-31T18:39:20;8.20;;;6.88;;
82396;SDS011;72034;51.426;7.534;2023-10-31T18:41:46;9.25;;;7.13;;
82396;SDS011;72034;51.426;7.534;2023-10-31T18:44:12;10.20;;;6.85;;
82396;SDS011;72034;51.426;7.534;2023-10-31T18:46:37;7.80;;;7.00;;
82396;SDS011;72034;51.426;7.534;2023-10-31T18:49:02;8.75;;;7.18;;
82396;SDS011;72034;51.426;7.534;2023-10-31T18:51:28;8.65;;;6.82;;
82396;SDS011;72034;51.426;7.534;2023-10-31T18:53:53;9.88;;;7.13;;
82396;SDS011;72034;51.426;7.534;2023-10-31T18:56:19;9.50;;;7.07;;
82396;SDS011;72034;51.426;7.534;2023-10-31T18:58:44;9.80;;;7.05;;
82396;SDS011;72034;51.426;7.534;2023-10-31T19:01:09;12.07;;;8.55;;
82396;SDS011;72034;51.426;7.534;2023-10-31T19:03:35;11.32;;;8.27;;
82396;SDS011;72034;51.426;7.534;2023-10-31T19:06:01;11.50;;;8.40;;
82396;SDS011;72034;51.426;7.534;2023-10-31T19:08:26;10.68;;;8.45;;
82396;SDS011;72034;51.426;7.534;2023-10-31T19:10:52;10.18;;;8.77;;
82396;SDS011;72034;51.426;7.534;2023-10-31T19:13:18;9.45;;;8.48;;
82396;SDS011;72034;51.426;7.534;2023-10-31T19:15:44;10.93;;;7.72;;
82396;SDS011;72034;51.426;7.534;2023-10-31T19:18:09;12.60;;;7.88;;
82396;SDS011;72034;51.426;7.534;2023-10-31T19:20:34;10.30;;;7.95;;
82396;SDS011;72034;51.426;7.534;2023-10-31T19:23:00;8.75;;;7.72;;
82396;SDS011;72034;51.426;7.534;2023-10-31T19:25:25;9.23;;;7.35;;
82396;SDS011;72034;51.426;7.534;2023-10-31T19:27:52;8.63;;;7.72;;
82396;SDS011;72034;51.426;7.534;2023-10-31T19:30:18;11.07;;;7.85;;
82396;SDS011;72034;51.426;7.534;2023-10-31T19:32:43;11.27;;;8.43;;
82396;SDS011;72034;51.426;7.534;2023-10-31T19:35:09;8.93;;;7.88;;
82396;SDS011;72034;51.426;7.534;2023-10-31T19:37:38;8.77;;;7.88;;
82396;SDS011;72034;51.426;7.534;2023-10-31T19:40:09;12.82;;;8.55;;
82396;SDS011;72034;51.426;7.534;2023-10-31T19:42:38;11.45;;;8.40;;
82396;SDS011;72034;51.426;7.534;2023-10-31T19:45:03;11.40;;;8.65;;
82396;SDS011;72034;51.426;7.534;2023-10-31T19:47:29;10.13;;;8.48;;
82396;SDS011;72034;51.426;7.534;2023-10-31T19:49:54;11.13;;;9.00;;
82396;SDS011;72034;51.426;7.534;2023-10-31T19:52:19;11.88;;;8.65;;
82396;SDS011;72034;51.426;7.534;2023-10-31T19:54:45;10.68;;;8.90;;
82396;SDS011;72034;51.426;7.534;2023-10-31T19:57:10;9.00;;;8.10;;